createdAt,value
2016-11-09T08:40:29.221Z,99138
2016-11-09T08:42:30.434Z,99138
2016-11-09T08:44:29.125Z,99143
2016-11-09T08:46:31.336Z,99140
2016-11-09T08:48:30.556Z,99139
2016-11-09T08:50:30.639Z,99139
2016-11-09T08:52:29.256Z,99139
2016-11-09T08:54:29.376Z,99134
2016-11-09T08:56:30.779Z,99132
2016-11-09T08:58:30.769Z,99132
2016-11-09T09:00:30.808Z,99135
2016-11-09T09:02:31.484Z,99134
2016-11-09T09:04:29.624Z,99135
2016-11-09T09:06:32.990Z,99133
2016-11-09T09:08:31.064Z,99126
2016-11-09T09:10:34.417Z,99126
2016-11-09T09:12:31.381Z,99123
2016-11-09T09:14:32.040Z,99120
2016-11-09T09:16:29.986Z,99118
2016-11-09T09:18:35.546Z,99118
2016-11-09T09:20:32.624Z,99129
2016-11-09T09:22:32.054Z,99112
2016-11-09T09:24:32.020Z,99121
2016-11-09T09:26:34.328Z,99108
2016-11-09T09:28:32.980Z,99109
2016-11-09T09:30:33.052Z,99110
2016-11-09T09:32:32.461Z,99106
2016-11-09T09:34:31.745Z,99108
2016-11-09T09:36:34.000Z,99108
2016-11-09T09:38:35.313Z,99106
2016-11-09T09:40:35.432Z,99106
2016-11-09T09:42:34.596Z,99106
2016-11-09T09:44:31.127Z,99101
2016-11-09T09:46:32.835Z,99102
2016-11-09T09:48:31.383Z,99099
2016-11-09T09:50:31.468Z,99096
2016-11-09T09:52:39.175Z,99098
2016-11-09T09:54:35.764Z,99096
2016-11-09T09:56:32.126Z,99093
2016-11-09T09:58:35.335Z,99090
2016-11-09T10:00:32.154Z,99087
2016-11-09T10:02:34.965Z,99086
2016-11-09T10:04:31.474Z,99083
2016-11-09T10:06:34.106Z,99081
2016-11-09T10:08:31.548Z,99078
2016-11-09T10:10:32.413Z,99075
2016-11-09T10:12:32.944Z,99071
2016-11-09T10:14:31.160Z,99074
2016-11-09T10:16:33.348Z,99072
2016-11-09T10:18:44.123Z,99067
2016-11-09T10:20:31.303Z,99057
2016-11-09T10:22:32.731Z,99060
2016-11-09T10:24:36.368Z,99059
2016-11-09T10:26:35.613Z,99062
2016-11-09T10:28:35.288Z,99055
2016-11-09T10:30:38.329Z,99054
2016-11-09T10:32:35.709Z,99054
2016-11-09T10:34:34.502Z,99053
2016-11-09T10:36:47.724Z,99055
2016-11-09T10:38:45.714Z,99052
2016-11-09T10:40:33.234Z,99052
2016-11-09T10:42:33.241Z,99052
2016-11-09T10:44:31.938Z,99048
2016-11-09T10:46:32.044Z,99050
2016-11-09T10:48:34.676Z,99045
2016-11-09T10:50:34.840Z,99051
2016-11-09T10:52:35.662Z,99042
2016-11-09T10:54:35.495Z,99037
2016-11-09T10:56:37.670Z,99039
2016-11-09T10:58:40.231Z,99035
2016-11-09T11:00:35.574Z,99033
2016-11-09T11:02:33.732Z,99028
2016-11-09T11:04:33.762Z,99036
2016-11-09T11:06:35.973Z,99032
2016-11-09T11:08:36.634Z,99026
2016-11-09T11:10:46.301Z,99026
2016-11-09T11:12:48.935Z,99023
2016-11-09T11:14:46.179Z,99023
2016-11-09T11:16:43.988Z,99017
2016-11-09T11:18:40.085Z,99017
2016-11-09T11:20:38.306Z,99013
2016-11-09T11:22:34.313Z,99008
2016-11-09T11:24:34.211Z,99007
2016-11-09T11:26:33.015Z,99002
2016-11-09T11:28:34.480Z,98999
2016-11-09T11:30:36.273Z,98997
2016-11-09T11:32:35.814Z,98993
2016-11-09T11:34:33.251Z,98989
2016-11-09T11:36:34.384Z,98990
2016-11-09T11:38:35.091Z,98984
2016-11-09T11:40:35.986Z,98986
2016-11-09T11:42:35.996Z,98982
2016-11-09T11:44:36.164Z,98976
2016-11-09T11:46:34.907Z,98974
2016-11-09T11:48:35.916Z,98975
2016-11-09T11:50:33.664Z,98970
2016-11-09T11:52:35.115Z,98962
2016-11-09T11:54:36.630Z,98966
2016-11-09T11:56:35.097Z,98957
2016-11-09T11:58:35.641Z,98955
2016-11-09T12:00:35.265Z,98961
2016-11-09T12:02:36.693Z,98953
2016-11-09T12:04:40.753Z,98950
2016-11-09T12:06:36.028Z,98951
2016-11-09T12:08:37.092Z,98947
2016-11-09T12:10:36.351Z,98951
2016-11-09T12:12:34.851Z,98948
2016-11-09T12:14:37.845Z,98942
2016-11-09T12:16:36.328Z,98943
2016-11-09T12:18:39.531Z,98941
2016-11-09T12:20:36.847Z,98937
2016-11-09T12:22:36.356Z,98940
2016-11-09T12:24:36.531Z,98934
2016-11-09T12:26:37.940Z,98933
2016-11-09T12:28:35.874Z,98929
2016-11-09T12:30:34.657Z,98930
2016-11-09T12:32:34.677Z,98934
2016-11-09T12:34:35.934Z,98934
2016-11-09T12:36:34.783Z,98933
2016-11-09T12:38:36.120Z,98938
2016-11-09T12:40:34.804Z,98925
2016-11-09T12:42:37.628Z,98918
2016-11-09T12:44:36.104Z,98914
2016-11-09T12:46:34.948Z,98907
2016-11-09T12:48:37.049Z,98917
2016-11-09T12:50:34.984Z,98912
2016-11-09T12:52:36.368Z,98912
2016-11-09T12:54:36.409Z,98909
2016-11-09T12:56:35.081Z,98912
2016-11-09T12:58:37.271Z,98904
2016-11-09T13:00:44.012Z,98908
2016-11-09T13:02:36.639Z,98899
2016-11-09T13:04:42.674Z,98896
2016-11-09T13:06:36.757Z,98888
2016-11-09T13:08:36.800Z,98888
2016-11-09T13:10:35.402Z,98885
2016-11-09T13:12:35.568Z,98886
2016-11-09T13:14:38.084Z,98881
2016-11-09T13:16:35.596Z,98882
2016-11-09T13:18:35.656Z,98880
2016-11-09T13:20:37.603Z,98874
2016-11-09T13:22:36.301Z,98873
2016-11-09T13:24:38.074Z,98873
2016-11-09T13:26:36.519Z,98869
2016-11-09T13:28:35.861Z,98867
2016-11-09T13:30:35.750Z,98864
2016-11-09T13:32:37.705Z,98865
2016-11-09T13:34:35.954Z,98865
2016-11-09T13:36:37.262Z,98864
2016-11-09T13:38:36.013Z,98863
2016-11-09T13:40:38.232Z,98865
2016-11-09T13:42:39.080Z,98858
2016-11-09T13:44:36.241Z,98855
2016-11-09T13:46:36.296Z,98853
2016-11-09T13:48:42.531Z,98851
2016-11-09T13:50:36.916Z,98850
2016-11-09T13:52:36.460Z,98851
2016-11-09T13:54:36.490Z,98850
2016-11-09T13:56:37.755Z,98843
2016-11-09T13:58:37.531Z,98844
2016-11-09T14:00:37.300Z,98840
2016-11-09T14:02:36.549Z,98841
2016-11-09T14:04:36.613Z,98842
2016-11-09T14:06:37.957Z,98840
2016-11-09T14:08:38.118Z,98836
2016-11-09T14:10:36.786Z,98834
2016-11-09T14:12:38.187Z,98836
2016-11-09T14:14:38.268Z,98836
2016-11-09T14:16:37.588Z,98834
2016-11-09T14:18:37.695Z,98834
2016-11-09T14:20:37.575Z,98830
2016-11-09T14:22:39.776Z,98832
2016-11-09T14:24:38.460Z,98831
2016-11-09T14:26:38.746Z,98831
2016-11-09T14:28:37.247Z,98828
2016-11-09T14:30:37.287Z,98826
2016-11-09T14:32:39.887Z,98821
2016-11-09T14:34:38.807Z,98823
2016-11-09T14:36:38.149Z,98821
2016-11-09T14:38:38.773Z,98818
2016-11-09T14:40:37.500Z,98812
2016-11-09T14:42:38.936Z,98816
2016-11-09T14:44:38.304Z,98811
2016-11-09T14:46:39.041Z,98811
2016-11-09T14:48:40.633Z,98811
2016-11-09T14:50:39.734Z,98808
2016-11-09T14:52:38.372Z,98804
2016-11-09T14:54:38.404Z,98802
2016-11-09T14:56:37.841Z,98809
2016-11-09T14:58:37.913Z,98805
2016-11-09T15:00:37.841Z,98798
2016-11-09T15:02:37.952Z,98797
2016-11-09T15:04:41.268Z,98794
2016-11-09T15:06:40.606Z,98793
2016-11-09T15:08:39.427Z,98795
2016-11-09T15:10:42.177Z,98797
2016-11-09T15:12:38.215Z,98790
2016-11-09T15:14:38.351Z,98788
2016-11-09T15:16:39.958Z,98796
2016-11-09T15:18:39.801Z,98786
2016-11-09T15:20:40.795Z,98786
2016-11-09T15:22:40.602Z,98784
2016-11-09T15:24:39.977Z,98778
2016-11-09T15:26:39.638Z,98783
2016-11-09T15:28:40.019Z,98777
2016-11-09T15:30:38.736Z,98775
2016-11-09T15:32:39.964Z,98775
2016-11-09T15:34:40.159Z,98768
2016-11-09T15:36:40.248Z,98768
2016-11-09T15:38:40.255Z,98767
2016-11-09T15:40:40.266Z,98766
2016-11-09T15:42:41.690Z,98769
2016-11-09T15:44:39.084Z,98763
2016-11-09T15:46:39.886Z,98762
2016-11-09T15:48:39.148Z,98762
2016-11-09T15:50:39.218Z,98765
2016-11-09T15:52:40.705Z,98765
2016-11-09T15:54:39.926Z,98766
2016-11-09T15:56:39.428Z,98763
2016-11-09T15:58:40.857Z,98765
2016-11-09T16:00:40.850Z,98768
2016-11-09T16:02:40.951Z,98768
2016-11-09T16:04:41.686Z,98769
2016-11-09T16:06:42.359Z,98771
2016-11-09T16:08:41.036Z,98767
2016-11-09T16:10:41.642Z,98771
2016-11-09T16:12:40.418Z,98777
2016-11-09T16:14:41.105Z,98772
2016-11-09T16:16:42.430Z,98775
2016-11-09T16:18:41.270Z,98762
2016-11-09T16:20:42.467Z,98771
2016-11-09T16:22:40.726Z,98765
2016-11-09T16:24:41.067Z,98769
2016-11-09T16:26:40.712Z,98765
2016-11-09T16:28:41.491Z,98767
2016-11-09T16:30:40.155Z,98770
2016-11-09T16:32:40.961Z,98768
2016-11-09T16:34:40.365Z,98770
2016-11-09T16:36:41.348Z,98770
2016-11-09T16:38:41.326Z,98773
2016-11-09T16:40:41.088Z,98776
2016-11-09T16:42:42.941Z,98775
2016-11-09T16:44:40.571Z,98775
2016-11-09T16:46:42.008Z,98773
2016-11-09T16:48:42.525Z,98772
2016-11-09T16:50:42.778Z,98775
2016-11-09T16:52:40.750Z,98770
2016-11-09T16:54:40.824Z,98773
2016-11-09T16:56:40.875Z,98771
2016-11-09T16:58:40.847Z,98771
2016-11-09T17:00:40.940Z,98774
2016-11-09T17:02:41.073Z,98775
2016-11-09T17:04:41.049Z,98774
2016-11-09T17:06:42.420Z,98775
2016-11-09T17:08:42.435Z,98779
2016-11-09T17:10:42.432Z,98776
2016-11-09T17:12:41.323Z,98777
2016-11-09T17:14:41.240Z,98778
2016-11-09T17:16:41.881Z,98779
2016-11-09T17:18:42.626Z,98776
2016-11-09T17:20:43.992Z,98778
2016-11-09T17:22:42.142Z,98774
2016-11-09T17:24:43.400Z,98773
2016-11-09T17:26:42.776Z,98775
2016-11-09T17:28:43.749Z,98776
2016-11-09T17:30:42.961Z,98775
2016-11-09T17:32:43.553Z,98776
2016-11-09T17:34:43.064Z,98776
2016-11-09T17:36:41.742Z,98771
2016-11-09T17:38:41.818Z,98772
2016-11-09T17:40:42.518Z,98775
2016-11-09T17:42:41.917Z,98771
2016-11-09T17:44:43.334Z,98773
2016-11-09T17:46:41.957Z,98767
2016-11-09T17:48:42.044Z,98769
2016-11-09T17:50:42.086Z,98766
2016-11-09T17:52:42.231Z,98767
2016-11-09T17:54:44.927Z,98766
2016-11-09T17:56:42.684Z,98765
2016-11-09T17:58:43.636Z,98758
2016-11-09T18:00:42.274Z,98761
2016-11-09T18:02:43.683Z,98762
2016-11-09T18:04:43.771Z,98758
2016-11-09T18:06:43.748Z,98756
2016-11-09T18:08:43.832Z,98753
2016-11-09T18:10:42.465Z,98758
2016-11-09T18:12:43.919Z,98759
2016-11-09T18:14:43.954Z,98751
2016-11-09T18:16:43.135Z,98756
2016-11-09T18:18:42.598Z,98752
2016-11-09T18:20:44.076Z,98758
2016-11-09T18:22:44.079Z,98756
2016-11-09T18:24:42.684Z,98756
2016-11-09T18:26:42.781Z,98752
2016-11-09T18:28:42.775Z,98751
2016-11-09T18:30:44.942Z,98755
2016-11-09T18:32:44.284Z,98754
2016-11-09T18:34:44.413Z,98752
2016-11-09T18:36:44.360Z,98755
2016-11-09T18:38:43.077Z,98751
2016-11-09T18:40:43.117Z,98751
2016-11-09T18:42:44.517Z,98753
2016-11-09T18:44:43.197Z,98754
2016-11-09T18:46:43.313Z,98755
2016-11-09T18:48:44.705Z,98754
2016-11-09T18:50:44.696Z,98755
2016-11-09T18:52:43.435Z,98759
2016-11-09T18:54:43.348Z,98757
2016-11-09T18:56:43.400Z,98759
2016-11-09T18:58:43.521Z,98752
2016-11-09T19:00:43.557Z,98753
2016-11-09T19:02:44.950Z,98754
2016-11-09T19:04:44.937Z,98751
2016-11-09T19:06:44.928Z,98749
2016-11-09T19:08:43.674Z,98751
2016-11-09T19:10:43.775Z,98752
2016-11-09T19:12:45.168Z,98751
2016-11-09T19:14:43.829Z,98745
2016-11-09T19:16:43.947Z,98748
2016-11-09T19:18:43.903Z,98749
2016-11-09T19:20:45.317Z,98750
2016-11-09T19:22:46.040Z,98747
2016-11-09T19:24:44.015Z,98753
2016-11-09T19:26:44.061Z,98748
2016-11-09T19:28:44.130Z,98757
2016-11-09T19:30:44.200Z,98749
2016-11-09T19:32:44.310Z,98751
2016-11-09T19:34:45.718Z,98751
2016-11-09T19:36:44.395Z,98756
2016-11-09T19:38:45.792Z,98755
2016-11-09T19:40:44.522Z,98758
2016-11-09T19:42:44.496Z,98757
2016-11-09T19:44:45.981Z,98755
2016-11-09T19:46:46.032Z,98756
2016-11-09T19:48:46.647Z,98758
2016-11-09T19:50:44.682Z,98757
2016-11-09T19:52:46.115Z,98762
2016-11-09T19:54:44.807Z,98760
2016-11-09T19:56:46.195Z,98761
2016-11-09T19:58:44.967Z,98758
2016-11-09T20:00:46.342Z,98757
2016-11-09T20:02:46.385Z,98752
2016-11-09T20:04:45.012Z,98755
2016-11-09T20:06:46.437Z,98756
2016-11-09T20:08:45.067Z,98758
2016-11-09T20:10:46.498Z,98762
2016-11-09T20:12:46.548Z,98758
2016-11-09T20:14:45.214Z,98757
2016-11-09T20:16:45.288Z,98757
2016-11-09T20:18:45.292Z,98760
2016-11-09T20:20:46.709Z,98760
2016-11-09T20:22:46.815Z,98755
2016-11-09T20:24:46.883Z,98759
2016-11-09T20:26:45.513Z,98760
2016-11-09T20:28:45.585Z,98759
2016-11-09T20:30:46.976Z,98756
2016-11-09T20:32:46.987Z,98759
2016-11-09T20:34:45.721Z,98761
2016-11-09T20:36:45.770Z,98760
2016-11-09T20:38:47.127Z,98764
2016-11-09T20:40:45.872Z,98765
2016-11-09T20:42:45.960Z,98758
2016-11-09T20:44:47.545Z,98765
2016-11-09T20:46:45.988Z,98764
2016-11-09T20:48:47.324Z,98763
2016-11-09T20:50:45.944Z,98760
2016-11-09T20:52:45.998Z,98763
2016-11-09T20:54:47.352Z,98763
2016-11-09T20:56:47.374Z,98760
2016-11-09T20:58:47.439Z,98762
2016-11-09T21:00:47.510Z,98764
2016-11-09T21:02:46.211Z,98765
2016-11-09T21:04:46.280Z,98767
2016-11-09T21:06:47.700Z,98766
2016-11-09T21:08:47.747Z,98763
2016-11-09T21:10:46.476Z,98766
2016-11-09T21:12:46.475Z,98764
2016-11-09T21:14:46.509Z,98766
2016-11-09T21:16:46.592Z,98765
2016-11-09T21:18:48.031Z,98764
2016-11-09T21:20:46.742Z,98775
2016-11-09T21:22:46.848Z,98772
2016-11-09T21:24:48.188Z,98769
2016-11-09T21:26:48.311Z,98780
2016-11-09T21:28:47.135Z,98781
2016-11-09T21:30:47.014Z,98781
2016-11-09T21:32:47.093Z,98783
2016-11-09T21:34:47.097Z,98783
2016-11-09T21:36:47.155Z,98783
2016-11-09T21:38:48.539Z,98788
2016-11-09T21:40:47.253Z,98785
2016-11-09T21:42:48.588Z,98784
2016-11-09T21:44:47.342Z,98782
2016-11-09T21:46:47.345Z,98788
2016-11-09T21:48:48.795Z,98789
2016-11-09T21:50:47.469Z,98787
2016-11-09T21:52:48.945Z,98793
2016-11-09T21:54:48.981Z,98794
2016-11-09T21:56:47.621Z,98795
2016-11-09T21:58:47.723Z,98797
2016-11-09T22:00:49.063Z,98794
2016-11-09T22:02:47.766Z,98798
2016-11-09T22:04:49.244Z,98807
2016-11-09T22:06:47.897Z,98801
2016-11-09T22:08:49.279Z,98803
2016-11-09T22:10:49.251Z,98801
2016-11-09T22:12:49.328Z,98806
2016-11-09T22:14:48.053Z,98809
2016-11-09T22:16:49.516Z,98806
2016-11-09T22:18:48.233Z,98812
2016-11-09T22:20:48.322Z,98809
2016-11-09T22:22:48.318Z,98814
2016-11-09T22:24:48.310Z,98812
2016-11-09T22:26:49.758Z,98815
2016-11-09T22:28:48.392Z,98813
2016-11-09T22:30:48.449Z,98823
2016-11-09T22:32:48.592Z,98826
2016-11-09T22:34:49.999Z,98828
2016-11-09T22:36:48.612Z,98831
2016-11-09T22:38:48.729Z,98831
2016-11-09T22:40:50.114Z,98834
2016-11-09T22:42:50.193Z,98834
2016-11-09T22:44:50.231Z,98831
2016-11-09T22:46:48.968Z,98837
2016-11-09T22:48:48.972Z,98841
2016-11-09T22:50:49.088Z,98844
2016-11-09T22:52:49.115Z,98849
2016-11-09T22:54:50.583Z,98850
2016-11-09T22:56:50.652Z,98852
2016-11-09T22:58:49.418Z,98852
2016-11-09T23:00:50.681Z,98858
2016-11-09T23:02:50.715Z,98857
2016-11-09T23:04:49.375Z,98861
2016-11-09T23:06:49.497Z,98863
2016-11-09T23:08:50.884Z,98860
2016-11-09T23:10:49.565Z,98862
2016-11-09T23:12:49.533Z,98868
2016-11-09T23:14:49.556Z,98865
2016-11-09T23:16:50.978Z,98865
2016-11-09T23:18:49.650Z,98864
2016-11-09T23:20:51.057Z,98863
2016-11-09T23:22:51.228Z,98867
2016-11-09T23:24:49.821Z,98865
2016-11-09T23:26:51.253Z,98871
2016-11-09T23:28:50.001Z,98877
2016-11-09T23:30:51.346Z,98876
2016-11-09T23:32:51.347Z,98876
2016-11-09T23:34:51.405Z,98881
2016-11-09T23:36:50.149Z,98887
2016-11-09T23:38:50.215Z,98889
2016-11-09T23:40:50.268Z,98892
2016-11-09T23:42:51.651Z,98894
2016-11-09T23:44:50.427Z,98896
2016-11-09T23:46:51.871Z,98894
2016-11-09T23:48:50.546Z,98897
2016-11-09T23:50:51.889Z,98899
2016-11-09T23:52:51.903Z,98901
2016-11-09T23:54:51.915Z,98903
2016-11-09T23:56:50.582Z,98908
2016-11-09T23:58:50.669Z,98905
